Airfield :
LOGIN :

Register | Disclaimer

   EN    FR    IT 

 










Legend :    VFR   Marginal VFR   IFR   Intensive IFR   Very Intensive IFR
Visi :
Ceiling :
>= 8 km
>= 3000ft
5 to 8 km
1000 to 3000 ft
1500m to 5 km
500 to 1000 ft
800 to 1500m
200 to 500 ft
< 800m
< 200 ft
Symbols :   Thunderstorms  Fog  Heavy snow  Heavy precipitations  Wind > 20 kt
SIGMETs :     Misc.  Thunderstorms  Icing  Turbulence  Mountain Waves  Volcanic Ashes







- Airport Elevation : 249 ft


EGOS - RAF Shawbury

CURRENT METAR :
  • 181550Z 21019KT 9999 SCT028 20/14 Q1006 BLU NOSIG

EXPIRED METARs :
  • 181450Z 23020KT 9999 SCT030 BKN220 20/14 Q1006 BLU NOSIG
  • 181350Z 22017KT 9999 SCT028 BKN250 21/15 Q1005 BLU NOSIG

TAF TAF EGOS
Valid from the 18 at 15:00 until the 18 at 18:00 UTC


181327Z 1815/1818 22015G25KT 9999 BKN025
No reported NOTAMs for that airfield.
2 SIGMETs reported for the London FIR (EGTT) :
 
Severe turbulence
EGTT SIGMET 08 VALID 181400/181800 EGRR
EGTT LONDON FIR SEV TURB FCST WI N5500 W00232 - N5500 E00458 - N5459 E00458 - N5348 E00354 - N5351 W00234 - N5458 W00234 - N5500 W00232 SFC/FL060 MOV NE 15KT NC=
Severe mountain waves
EGTT SIGMET 07 VALID 181400/181800 EGRR
EGTT LONDON FIR SEV MTW FCST WI N5221 E00156 - N5039 W00347 - N5209 W00411 - N5500 W00420 - N5500 E00203 - N5221 E00156 FL040/240 STNR NC=



MET'MAP, your aeronautical weather chart ! - Copyright ORBIFLY December 2007 - Disclaimer

ORBIFLY MET'MAP TEAM :

Programming & Development : Alexandra Zaïnal
Concept & Development : Baudouin d'Aumeries
Co-Development & Prog : Marc-Olivier Méhu
Technical & hardware support : Manuel Goepfert

Contact : metmap@orbifly.com




SOURCES & CREDITS :

   NOAA